sensor_id;sensor_type;location;lat;lon;timestamp;P1;durP1;ratioP1;P2;durP2;ratioP2
2041;SDS011;1026;51.460;7.252;2022-11-15T00:00:44;6.23;;;5.63;;
2041;SDS011;1026;51.460;7.252;2022-11-15T00:03:09;8.50;;;6.20;;
2041;SDS011;1026;51.460;7.252;2022-11-15T00:05:37;7.03;;;5.90;;
2041;SDS011;1026;51.460;7.252;2022-11-15T00:08:03;5.47;;;4.93;;
2041;SDS011;1026;51.460;7.252;2022-11-15T00:10:29;6.20;;;5.57;;
2041;SDS011;1026;51.460;7.252;2022-11-15T00:12:54;7.50;;;6.30;;
2041;SDS011;1026;51.460;7.252;2022-11-15T00:15:20;8.40;;;5.53;;
2041;SDS011;1026;51.460;7.252;2022-11-15T00:17:48;7.20;;;5.90;;
2041;SDS011;1026;51.460;7.252;2022-11-15T00:20:14;6.57;;;5.80;;
2041;SDS011;1026;51.460;7.252;2022-11-15T00:22:40;8.60;;;5.50;;
2041;SDS011;1026;51.460;7.252;2022-11-15T00:25:06;6.23;;;5.43;;
2041;SDS011;1026;51.460;7.252;2022-11-15T00:27:32;8.43;;;5.20;;
2041;SDS011;1026;51.460;7.252;2022-11-15T00:29:57;5.60;;;5.00;;
2041;SDS011;1026;51.460;7.252;2022-11-15T00:32:23;7.03;;;5.97;;
2041;SDS011;1026;51.460;7.252;2022-11-15T00:34:48;7.73;;;6.03;;
2041;SDS011;1026;51.460;7.252;2022-11-15T00:37:14;4.90;;;4.00;;
2041;SDS011;1026;51.460;7.252;2022-11-15T00:39:40;7.57;;;6.60;;
2041;SDS011;1026;51.460;7.252;2022-11-15T00:42:06;6.40;;;5.80;;
2041;SDS011;1026;51.460;7.252;2022-11-15T00:44:32;10.67;;;6.37;;
2041;SDS011;1026;51.460;7.252;2022-11-15T00:46:57;7.40;;;5.33;;
2041;SDS011;1026;51.460;7.252;2022-11-15T00:49:23;6.40;;;5.27;;
2041;SDS011;1026;51.460;7.252;2022-11-15T00:51:49;5.83;;;5.33;;
2041;SDS011;1026;51.460;7.252;2022-11-15T00:54:14;6.47;;;5.50;;
2041;SDS011;1026;51.460;7.252;2022-11-15T00:56:40;9.27;;;6.07;;
2041;SDS011;1026;51.460;7.252;2022-11-15T00:59:06;8.73;;;5.77;;
2041;SDS011;1026;51.460;7.252;2022-11-15T01:01:31;6.20;;;5.43;;
2041;SDS011;1026;51.460;7.252;2022-11-15T01:03:57;6.53;;;5.77;;
2041;SDS011;1026;51.460;7.252;2022-11-15T01:06:22;6.90;;;6.07;;
2041;SDS011;1026;51.460;7.252;2022-11-15T01:08:48;6.53;;;5.80;;
2041;SDS011;1026;51.460;7.252;2022-11-15T01:11:14;5.90;;;5.20;;
2041;SDS011;1026;51.460;7.252;2022-11-15T01:13:40;6.90;;;5.90;;
2041;SDS011;1026;51.460;7.252;2022-11-15T01:16:07;5.80;;;4.83;;
2041;SDS011;1026;51.460;7.252;2022-11-15T01:18:37;8.77;;;6.20;;
2041;SDS011;1026;51.460;7.252;2022-11-15T01:21:04;7.47;;;5.87;;
2041;SDS011;1026;51.460;7.252;2022-11-15T01:23:32;9.80;;;6.00;;
2041;SDS011;1026;51.460;7.252;2022-11-15T01:26:00;6.60;;;5.87;;
2041;SDS011;1026;51.460;7.252;2022-11-15T01:28:29;7.03;;;5.50;;
2041;SDS011;1026;51.460;7.252;2022-11-15T01:30:58;5.53;;;4.80;;
2041;SDS011;1026;51.460;7.252;2022-11-15T01:33:24;8.77;;;5.80;;
2041;SDS011;1026;51.460;7.252;2022-11-15T01:35:50;10.17;;;6.10;;
2041;SDS011;1026;51.460;7.252;2022-11-15T01:38:16;7.83;;;6.30;;
2041;SDS011;1026;51.460;7.252;2022-11-15T01:40:41;5.83;;;5.20;;
2041;SDS011;1026;51.460;7.252;2022-11-15T01:43:37;6.70;;;6.00;;
2041;SDS011;1026;51.460;7.252;2022-11-15T01:46:00;6.87;;;6.17;;
2041;SDS011;1026;51.460;7.252;2022-11-15T01:48:32;9.83;;;5.20;;
2041;SDS011;1026;51.460;7.252;2022-11-15T01:51:01;5.33;;;4.93;;
2041;SDS011;1026;51.460;7.252;2022-11-15T01:53:31;7.70;;;5.83;;
2041;SDS011;1026;51.460;7.252;2022-11-15T01:55:59;7.40;;;6.10;;
2041;SDS011;1026;51.460;7.252;2022-11-15T01:58:29;7.00;;;5.53;;
2041;SDS011;1026;51.460;7.252;2022-11-15T02:00:54;7.30;;;6.13;;
2041;SDS011;1026;51.460;7.252;2022-11-15T02:03:20;7.10;;;4.67;;
2041;SDS011;1026;51.460;7.252;2022-11-15T02:05:50;4.03;;;3.63;;
2041;SDS011;1026;51.460;7.252;2022-11-15T02:08:21;5.40;;;4.47;;
2041;SDS011;1026;51.460;7.252;2022-11-15T02:10:47;5.80;;;5.17;;
2041;SDS011;1026;51.460;7.252;2022-11-15T02:13:14;5.17;;;4.70;;
2041;SDS011;1026;51.460;7.252;2022-11-15T02:15:45;6.90;;;5.57;;
2041;SDS011;1026;51.460;7.252;2022-11-15T02:18:35;7.53;;;5.10;;
2041;SDS011;1026;51.460;7.252;2022-11-15T02:21:10;6.83;;;5.20;;
2041;SDS011;1026;51.460;7.252;2022-11-15T02:24:09;7.43;;;5.90;;
2041;SDS011;1026;51.460;7.252;2022-11-15T02:30:04;5.63;;;4.37;;
2041;SDS011;1026;51.460;7.252;2022-11-15T02:32:44;6.13;;;5.53;;
2041;SDS011;1026;51.460;7.252;2022-11-15T02:38:08;7.13;;;5.67;;
2041;SDS011;1026;51.460;7.252;2022-11-15T02:43:51;7.30;;;5.80;;
2041;SDS011;1026;51.460;7.252;2022-11-15T02:46:49;6.70;;;6.00;;
2041;SDS011;1026;51.460;7.252;2022-11-15T02:49:35;7.60;;;5.47;;
2041;SDS011;1026;51.460;7.252;2022-11-15T02:52:02;14.10;;;5.80;;
2041;SDS011;1026;51.460;7.252;2022-11-15T02:54:29;7.50;;;5.70;;
2041;SDS011;1026;51.460;7.252;2022-11-15T02:56:59;7.47;;;5.50;;
2041;SDS011;1026;51.460;7.252;2022-11-15T03:04:57;6.53;;;5.60;;
2041;SDS011;1026;51.460;7.252;2022-11-15T03:07:29;8.40;;;6.47;;
2041;SDS011;1026;51.460;7.252;2022-11-15T03:10:36;9.67;;;6.37;;
2041;SDS011;1026;51.460;7.252;2022-11-15T03:13:33;6.87;;;6.20;;
2041;SDS011;1026;51.460;7.252;2022-11-15T03:18:30;8.50;;;5.70;;
2041;SDS011;1026;51.460;7.252;2022-11-15T03:21:01;7.47;;;6.20;;
2041;SDS011;1026;51.460;7.252;2022-11-15T03:23:31;8.13;;;5.73;;
2041;SDS011;1026;51.460;7.252;2022-11-15T03:25:58;6.50;;;5.70;;
2041;SDS011;1026;51.460;7.252;2022-11-15T03:28:35;8.40;;;5.33;;
2041;SDS011;1026;51.460;7.252;2022-11-15T03:31:05;7.00;;;6.40;;
2041;SDS011;1026;51.460;7.252;2022-11-15T03:33:52;5.30;;;4.77;;
2041;SDS011;1026;51.460;7.252;2022-11-15T03:36:21;8.03;;;5.40;;
2041;SDS011;1026;51.460;7.252;2022-11-15T03:38:48;7.03;;;5.43;;
2041;SDS011;1026;51.460;7.252;2022-11-15T03:41:16;6.60;;;5.10;;
2041;SDS011;1026;51.460;7.252;2022-11-15T03:43:56;9.73;;;6.30;;
2041;SDS011;1026;51.460;7.252;2022-11-15T03:46:33;8.03;;;5.33;;
2041;SDS011;1026;51.460;7.252;2022-11-15T03:49:07;9.17;;;6.50;;
2041;SDS011;1026;51.460;7.252;2022-11-15T03:51:40;8.83;;;6.03;;
2041;SDS011;1026;51.460;7.252;2022-11-15T03:54:06;8.10;;;5.93;;
2041;SDS011;1026;51.460;7.252;2022-11-15T03:56:32;8.63;;;6.77;;
2041;SDS011;1026;51.460;7.252;2022-11-15T03:58:57;6.20;;;5.60;;
2041;SDS011;1026;51.460;7.252;2022-11-15T04:01:23;10.73;;;5.87;;
2041;SDS011;1026;51.460;7.252;2022-11-15T04:03:49;8.20;;;7.10;;
2041;SDS011;1026;51.460;7.252;2022-11-15T04:06:15;7.17;;;5.20;;
2041;SDS011;1026;51.460;7.252;2022-11-15T04:08:41;9.40;;;6.33;;
2041;SDS011;1026;51.460;7.252;2022-11-15T04:11:06;5.03;;;4.53;;
2041;SDS011;1026;51.460;7.252;2022-11-15T04:13:32;6.07;;;5.47;;
2041;SDS011;1026;51.460;7.252;2022-11-15T04:15:58;5.93;;;5.33;;
2041;SDS011;1026;51.460;7.252;2022-11-15T04:18:24;8.50;;;5.40;;
2041;SDS011;1026;51.460;7.252;2022-11-15T04:20:50;5.90;;;5.40;;
2041;SDS011;1026;51.460;7.252;2022-11-15T04:23:31;6.07;;;5.23;;
2041;SDS011;1026;51.460;7.252;2022-11-15T04:26:14;7.70;;;5.67;;
2041;SDS011;1026;51.460;7.252;2022-11-15T04:28:42;6.40;;;5.53;;
2041;SDS011;1026;51.460;7.252;2022-11-15T04:31:27;6.50;;;4.80;;
2041;SDS011;1026;51.460;7.252;2022-11-15T04:33:53;5.50;;;5.00;;
2041;SDS011;1026;51.460;7.252;2022-11-15T04:36:19;6.47;;;5.20;;
2041;SDS011;1026;51.460;7.252;2022-11-15T04:39:00;5.80;;;5.17;;
2041;SDS011;1026;51.460;7.252;2022-11-15T04:41:26;7.93;;;5.00;;
2041;SDS011;1026;51.460;7.252;2022-11-15T04:43:51;9.60;;;6.10;;
2041;SDS011;1026;51.460;7.252;2022-11-15T04:46:17;5.93;;;5.17;;
2041;SDS011;1026;51.460;7.252;2022-11-15T04:48:43;5.30;;;4.80;;
2041;SDS011;1026;51.460;7.252;2022-11-15T04:51:08;6.43;;;5.77;;
2041;SDS011;1026;51.460;7.252;2022-11-15T04:53:34;9.33;;;5.30;;
2041;SDS011;1026;51.460;7.252;2022-11-15T04:56:00;6.70;;;4.97;;
2041;SDS011;1026;51.460;7.252;2022-11-15T04:58:25;6.00;;;4.93;;
2041;SDS011;1026;51.460;7.252;2022-11-15T05:00:51;12.83;;;5.87;;
2041;SDS011;1026;51.460;7.252;2022-11-15T05:03:17;6.90;;;5.70;;
2041;SDS011;1026;51.460;7.252;2022-11-15T05:05:58;5.17;;;4.37;;
2041;SDS011;1026;51.460;7.252;2022-11-15T05:08:24;7.53;;;5.97;;
2041;SDS011;1026;51.460;7.252;2022-11-15T05:10:50;12.40;;;6.10;;
2041;SDS011;1026;51.460;7.252;2022-11-15T05:13:16;6.43;;;5.63;;
2041;SDS011;1026;51.460;7.252;2022-11-15T05:15:42;6.83;;;5.10;;
2041;SDS011;1026;51.460;7.252;2022-11-15T05:18:08;7.47;;;5.80;;
2041;SDS011;1026;51.460;7.252;2022-11-15T05:20:34;12.23;;;6.47;;
2041;SDS011;1026;51.460;7.252;2022-11-15T05:22:59;6.23;;;5.63;;
2041;SDS011;1026;51.460;7.252;2022-11-15T05:25:25;6.03;;;5.30;;
2041;SDS011;1026;51.460;7.252;2022-11-15T05:27:51;7.27;;;4.97;;
2041;SDS011;1026;51.460;7.252;2022-11-15T05:30:17;6.33;;;5.73;;
2041;SDS011;1026;51.460;7.252;2022-11-15T05:32:43;11.63;;;7.17;;
2041;SDS011;1026;51.460;7.252;2022-11-15T05:35:11;6.80;;;6.20;;
2041;SDS011;1026;51.460;7.252;2022-11-15T05:37:40;10.30;;;5.60;;
2041;SDS011;1026;51.460;7.252;2022-11-15T05:40:06;6.60;;;5.17;;
2041;SDS011;1026;51.460;7.252;2022-11-15T05:42:33;6.60;;;6.00;;
2041;SDS011;1026;51.460;7.252;2022-11-15T05:44:59;5.70;;;5.20;;
2041;SDS011;1026;51.460;7.252;2022-11-15T05:47:27;6.97;;;6.20;;
2041;SDS011;1026;51.460;7.252;2022-11-15T05:50:01;6.23;;;4.60;;
2041;SDS011;1026;51.460;7.252;2022-11-15T05:52:37;7.70;;;4.90;;
2041;SDS011;1026;51.460;7.252;2022-11-15T05:55:03;7.13;;;5.63;;
2041;SDS011;1026;51.460;7.252;2022-11-15T05:57:31;6.60;;;5.47;;
2041;SDS011;1026;51.460;7.252;2022-11-15T05:59:56;6.43;;;5.80;;
2041;SDS011;1026;51.460;7.252;2022-11-15T06:02:23;6.20;;;4.67;;
2041;SDS011;1026;51.460;7.252;2022-11-15T06:04:48;6.53;;;4.93;;
2041;SDS011;1026;51.460;7.252;2022-11-15T06:07:14;6.43;;;5.10;;
2041;SDS011;1026;51.460;7.252;2022-11-15T06:09:40;6.50;;;5.77;;
2041;SDS011;1026;51.460;7.252;2022-11-15T06:12:05;6.70;;;6.10;;
2041;SDS011;1026;51.460;7.252;2022-11-15T06:14:31;5.77;;;5.20;;
2041;SDS011;1026;51.460;7.252;2022-11-15T06:16:57;7.37;;;5.63;;
2041;SDS011;1026;51.460;7.252;2022-11-15T06:19:23;5.30;;;4.80;;
2041;SDS011;1026;51.460;7.252;2022-11-15T06:21:48;5.40;;;4.90;;
2041;SDS011;1026;51.460;7.252;2022-11-15T06:24:14;5.63;;;4.47;;
2041;SDS011;1026;51.460;7.252;2022-11-15T06:26:39;6.07;;;5.47;;
2041;SDS011;1026;51.460;7.252;2022-11-15T06:29:05;8.03;;;4.80;;
2041;SDS011;1026;51.460;7.252;2022-11-15T06:31:31;5.47;;;4.63;;
2041;SDS011;1026;51.460;7.252;2022-11-15T06:33:58;4.23;;;3.93;;
2041;SDS011;1026;51.460;7.252;2022-11-15T06:36:23;7.40;;;4.30;;
2041;SDS011;1026;51.460;7.252;2022-11-15T06:39:07;4.70;;;4.23;;
2041;SDS011;1026;51.460;7.252;2022-11-15T06:41:34;5.30;;;4.40;;
2041;SDS011;1026;51.460;7.252;2022-11-15T06:44:00;6.30;;;4.73;;
2041;SDS011;1026;51.460;7.252;2022-11-15T06:46:26;5.07;;;3.97;;
2041;SDS011;1026;51.460;7.252;2022-11-15T06:48:52;4.90;;;3.57;;
2041;SDS011;1026;51.460;7.252;2022-11-15T06:51:19;4.67;;;3.40;;
2041;SDS011;1026;51.460;7.252;2022-11-15T06:53:45;3.80;;;3.50;;
2041;SDS011;1026;51.460;7.252;2022-11-15T06:56:10;3.90;;;3.30;;
2041;SDS011;1026;51.460;7.252;2022-11-15T06:58:36;3.43;;;3.20;;
2041;SDS011;1026;51.460;7.252;2022-11-15T07:01:04;3.30;;;3.00;;
2041;SDS011;1026;51.460;7.252;2022-11-15T07:03:34;4.00;;;3.70;;
2041;SDS011;1026;51.460;7.252;2022-11-15T07:06:01;2.90;;;2.70;;
2041;SDS011;1026;51.460;7.252;2022-11-15T07:08:27;2.90;;;2.70;;
2041;SDS011;1026;51.460;7.252;2022-11-15T07:10:54;5.30;;;4.07;;
2041;SDS011;1026;51.460;7.252;2022-11-15T07:13:41;4.00;;;3.43;;
2041;SDS011;1026;51.460;7.252;2022-11-15T07:16:08;5.10;;;3.20;;
2041;SDS011;1026;51.460;7.252;2022-11-15T07:18:35;5.13;;;3.33;;
2041;SDS011;1026;51.460;7.252;2022-11-15T07:21:04;3.23;;;2.90;;
2041;SDS011;1026;51.460;7.252;2022-11-15T07:23:31;4.97;;;3.70;;
2041;SDS011;1026;51.460;7.252;2022-11-15T07:26:00;2.87;;;2.67;;
2041;SDS011;1026;51.460;7.252;2022-11-15T07:28:29;3.90;;;3.30;;
2041;SDS011;1026;51.460;7.252;2022-11-15T07:30:54;3.40;;;3.10;;
2041;SDS011;1026;51.460;7.252;2022-11-15T07:33:20;3.03;;;2.73;;
2041;SDS011;1026;51.460;7.252;2022-11-15T07:35:46;2.70;;;2.50;;
2041;SDS011;1026;51.460;7.252;2022-11-15T07:38:13;3.00;;;2.73;;
2041;SDS011;1026;51.460;7.252;2022-11-15T07:40:40;2.73;;;2.53;;
2041;SDS011;1026;51.460;7.252;2022-11-15T07:43:06;3.90;;;2.87;;
2041;SDS011;1026;51.460;7.252;2022-11-15T07:45:33;3.17;;;2.87;;
2041;SDS011;1026;51.460;7.252;2022-11-15T07:48:12;3.57;;;2.40;;
2041;SDS011;1026;51.460;7.252;2022-11-15T07:50:40;3.03;;;2.73;;
2041;SDS011;1026;51.460;7.252;2022-11-15T07:53:07;3.20;;;2.27;;
2041;SDS011;1026;51.460;7.252;2022-11-15T07:55:34;3.13;;;2.53;;
2041;SDS011;1026;51.460;7.252;2022-11-15T07:58:00;3.50;;;2.83;;
2041;SDS011;1026;51.460;7.252;2022-11-15T08:00:27;3.10;;;2.80;;
2041;SDS011;1026;51.460;7.252;2022-11-15T08:03:00;3.17;;;2.97;;
2041;SDS011;1026;51.460;7.252;2022-11-15T08:05:27;3.17;;;2.87;;
2041;SDS011;1026;51.460;7.252;2022-11-15T08:07:54;2.87;;;2.67;;
2041;SDS011;1026;51.460;7.252;2022-11-15T08:10:21;3.00;;;2.60;;
2041;SDS011;1026;51.460;7.252;2022-11-15T08:12:46;2.50;;;2.30;;
2041;SDS011;1026;51.460;7.252;2022-11-15T08:15:12;3.37;;;2.37;;
2041;SDS011;1026;51.460;7.252;2022-11-15T08:17:38;2.30;;;2.10;;
2041;SDS011;1026;51.460;7.252;2022-11-15T08:20:04;2.70;;;2.50;;
2041;SDS011;1026;51.460;7.252;2022-11-15T08:22:30;2.00;;;1.90;;
2041;SDS011;1026;51.460;7.252;2022-11-15T08:24:55;2.83;;;1.93;;
2041;SDS011;1026;51.460;7.252;2022-11-15T08:27:21;2.43;;;2.00;;
2041;SDS011;1026;51.460;7.252;2022-11-15T08:29:48;2.50;;;2.13;;
2041;SDS011;1026;51.460;7.252;2022-11-15T08:32:23;4.70;;;2.30;;
2041;SDS011;1026;51.460;7.252;2022-11-15T08:34:49;2.70;;;2.07;;
2041;SDS011;1026;51.460;7.252;2022-11-15T08:37:14;2.00;;;1.90;;
2041;SDS011;1026;51.460;7.252;2022-11-15T08:39:40;2.07;;;1.87;;
2041;SDS011;1026;51.460;7.252;2022-11-15T08:42:06;2.20;;;2.00;;
2041;SDS011;1026;51.460;7.252;2022-11-15T08:44:31;2.60;;;2.40;;
2041;SDS011;1026;51.460;7.252;2022-11-15T08:46:57;2.23;;;1.77;;
2041;SDS011;1026;51.460;7.252;2022-11-15T08:49:23;2.67;;;1.93;;
2041;SDS011;1026;51.460;7.252;2022-11-15T08:51:48;3.10;;;1.90;;
2041;SDS011;1026;51.460;7.252;2022-11-15T08:54:14;3.07;;;1.90;;
2041;SDS011;1026;51.460;7.252;2022-11-15T08:56:40;2.33;;;1.90;;
2041;SDS011;1026;51.460;7.252;2022-11-15T08:59:09;1.80;;;1.70;;
2041;SDS011;1026;51.460;7.252;2022-11-15T09:01:36;3.70;;;2.17;;
2041;SDS011;1026;51.460;7.252;2022-11-15T09:04:02;1.97;;;1.80;;
2041;SDS011;1026;51.460;7.252;2022-11-15T09:06:29;2.07;;;1.87;;
2041;SDS011;1026;51.460;7.252;2022-11-15T09:08:55;2.60;;;1.77;;
2041;SDS011;1026;51.460;7.252;2022-11-15T09:11:22;3.27;;;2.13;;
2041;SDS011;1026;51.460;7.252;2022-11-15T09:13:48;1.67;;;1.40;;
2041;SDS011;1026;51.460;7.252;2022-11-15T09:16:14;2.47;;;2.13;;
2041;SDS011;1026;51.460;7.252;2022-11-15T09:18:41;1.60;;;1.50;;
2041;SDS011;1026;51.460;7.252;2022-11-15T09:21:07;2.30;;;2.20;;
2041;SDS011;1026;51.460;7.252;2022-11-15T09:23:33;1.70;;;1.60;;
2041;SDS011;1026;51.460;7.252;2022-11-15T09:26:00;2.53;;;1.77;;
2041;SDS011;1026;51.460;7.252;2022-11-15T09:28:40;4.30;;;1.30;;
2041;SDS011;1026;51.460;7.252;2022-11-15T09:31:07;1.40;;;1.30;;
2041;SDS011;1026;51.460;7.252;2022-11-15T09:33:33;2.60;;;1.50;;
2041;SDS011;1026;51.460;7.252;2022-11-15T09:36:00;2.33;;;1.87;;
2041;SDS011;1026;51.460;7.252;2022-11-15T09:38:28;1.57;;;1.47;;
2041;SDS011;1026;51.460;7.252;2022-11-15T09:41:31;2.73;;;1.43;;
2041;SDS011;1026;51.460;7.252;2022-11-15T09:43:47;2.83;;;1.30;;
2041;SDS011;1026;51.460;7.252;2022-11-15T09:49:18;1.63;;;1.53;;
2041;SDS011;1026;51.460;7.252;2022-11-15T09:51:47;2.00;;;1.20;;
2041;SDS011;1026;51.460;7.252;2022-11-15T10:00:09;1.97;;;1.40;;
2041;SDS011;1026;51.460;7.252;2022-11-15T10:03:02;2.43;;;1.73;;
2041;SDS011;1026;51.460;7.252;2022-11-15T10:06:00;1.57;;;1.10;;
2041;SDS011;1026;51.460;7.252;2022-11-15T10:08:33;2.43;;;1.03;;
2041;SDS011;1026;51.460;7.252;2022-11-15T10:11:02;2.10;;;1.23;;
2041;SDS011;1026;51.460;7.252;2022-11-15T10:13:52;2.97;;;1.40;;
2041;SDS011;1026;51.460;7.252;2022-11-15T10:16:39;1.30;;;1.20;;
2041;SDS011;1026;51.460;7.252;2022-11-15T10:24:28;3.43;;;1.10;;
2041;SDS011;1026;51.460;7.252;2022-11-15T10:27:07;2.50;;;1.30;;
2041;SDS011;1026;51.460;7.252;2022-11-15T10:29:43;0.90;;;0.90;;
2041;SDS011;1026;51.460;7.252;2022-11-15T10:32:11;2.30;;;1.13;;
2041;SDS011;1026;51.460;7.252;2022-11-15T10:34:37;1.10;;;1.00;;
2041;SDS011;1026;51.460;7.252;2022-11-15T10:37:03;1.57;;;1.47;;
2041;SDS011;1026;51.460;7.252;2022-11-15T10:39:31;1.10;;;1.00;;
2041;SDS011;1026;51.460;7.252;2022-11-15T10:42:07;1.60;;;1.00;;
2041;SDS011;1026;51.460;7.252;2022-11-15T10:44:43;1.33;;;1.23;;
2041;SDS011;1026;51.460;7.252;2022-11-15T10:52:28;1.77;;;1.27;;
2041;SDS011;1026;51.460;7.252;2022-11-15T10:54:58;2.00;;;1.70;;
2041;SDS011;1026;51.460;7.252;2022-11-15T10:58:03;0.80;;;0.80;;
2041;SDS011;1026;51.460;7.252;2022-11-15T11:01:26;0.80;;;0.80;;
2041;SDS011;1026;51.460;7.252;2022-11-15T11:04:50;1.80;;;1.03;;
2041;SDS011;1026;51.460;7.252;2022-11-15T11:08:22;1.30;;;1.20;;
2041;SDS011;1026;51.460;7.252;2022-11-15T11:11:45;1.80;;;1.70;;
2041;SDS011;1026;51.460;7.252;2022-11-15T11:14:20;1.47;;;1.00;;
2041;SDS011;1026;51.460;7.252;2022-11-15T11:17:01;2.10;;;0.83;;
2041;SDS011;1026;51.460;7.252;2022-11-15T11:19:56;2.77;;;1.33;;
2041;SDS011;1026;51.460;7.252;2022-11-15T11:22:56;1.40;;;1.10;;
2041;SDS011;1026;51.460;7.252;2022-11-15T11:25:38;1.00;;;1.00;;
2041;SDS011;1026;51.460;7.252;2022-11-15T11:28:14;1.20;;;1.07;;
2041;SDS011;1026;51.460;7.252;2022-11-15T11:30:55;1.60;;;1.17;;
2041;SDS011;1026;51.460;7.252;2022-11-15T11:34:20;1.93;;;1.33;;
2041;SDS011;1026;51.460;7.252;2022-11-15T11:48:23;1.90;;;1.17;;
2041;SDS011;1026;51.460;7.252;2022-11-15T11:56:15;1.03;;;0.93;;
2041;SDS011;1026;51.460;7.252;2022-11-15T11:58:46;1.20;;;1.13;;
2041;SDS011;1026;51.460;7.252;2022-11-15T12:03:59;1.23;;;0.80;;
2041;SDS011;1026;51.460;7.252;2022-11-15T12:09:07;1.87;;;1.63;;
2041;SDS011;1026;51.460;7.252;2022-11-15T12:14:25;1.30;;;1.10;;
2041;SDS011;1026;51.460;7.252;2022-11-15T12:16:59;0.90;;;0.80;;
2041;SDS011;1026;51.460;7.252;2022-11-15T12:19:40;0.80;;;0.77;;
2041;SDS011;1026;51.460;7.252;2022-11-15T12:22:11;0.80;;;0.80;;
2041;SDS011;1026;51.460;7.252;2022-11-15T12:24:41;1.47;;;1.30;;
2041;SDS011;1026;51.460;7.252;2022-11-15T12:27:33;2.83;;;0.80;;
2041;SDS011;1026;51.460;7.252;2022-11-15T12:30:40;0.97;;;0.87;;
2041;SDS011;1026;51.460;7.252;2022-11-15T12:38:53;0.77;;;0.70;;
2041;SDS011;1026;51.460;7.252;2022-11-15T12:41:20;0.87;;;0.60;;
2041;SDS011;1026;51.460;7.252;2022-11-15T12:43:47;1.17;;;0.80;;
2041;SDS011;1026;51.460;7.252;2022-11-15T12:47:22;1.20;;;0.83;;
2041;SDS011;1026;51.460;7.252;2022-11-15T12:54:49;1.30;;;1.00;;
2041;SDS011;1026;51.460;7.252;2022-11-15T12:59:47;1.70;;;1.27;;
2041;SDS011;1026;51.460;7.252;2022-11-15T13:02:39;0.90;;;0.90;;
2041;SDS011;1026;51.460;7.252;2022-11-15T13:11:50;0.80;;;0.80;;
2041;SDS011;1026;51.460;7.252;2022-11-15T13:17:02;0.73;;;0.67;;
2041;SDS011;1026;51.460;7.252;2022-11-15T13:19:35;1.43;;;1.03;;
2041;SDS011;1026;51.460;7.252;2022-11-15T13:22:04;1.37;;;0.60;;
2041;SDS011;1026;51.460;7.252;2022-11-15T13:24:48;1.30;;;0.83;;
2041;SDS011;1026;51.460;7.252;2022-11-15T13:27:15;0.90;;;0.83;;
2041;SDS011;1026;51.460;7.252;2022-11-15T13:29:44;2.93;;;1.27;;
2041;SDS011;1026;51.460;7.252;2022-11-15T13:32:11;3.90;;;0.90;;
2041;SDS011;1026;51.460;7.252;2022-11-15T13:34:38;2.00;;;1.00;;
2041;SDS011;1026;51.460;7.252;2022-11-15T13:37:14;1.33;;;0.70;;
2041;SDS011;1026;51.460;7.252;2022-11-15T13:39:54;4.63;;;1.07;;
2041;SDS011;1026;51.460;7.252;2022-11-15T13:42:43;3.17;;;1.33;;
2041;SDS011;1026;51.460;7.252;2022-11-15T13:45:11;1.57;;;1.00;;
2041;SDS011;1026;51.460;7.252;2022-11-15T13:47:39;1.50;;;1.00;;
2041;SDS011;1026;51.460;7.252;2022-11-15T13:50:05;2.13;;;0.70;;
2041;SDS011;1026;51.460;7.252;2022-11-15T13:52:32;3.40;;;0.80;;
2041;SDS011;1026;51.460;7.252;2022-11-15T13:57:38;1.73;;;0.90;;
2041;SDS011;1026;51.460;7.252;2022-11-15T14:02:55;1.83;;;1.07;;
2041;SDS011;1026;51.460;7.252;2022-11-15T14:05:29;1.60;;;0.90;;
2041;SDS011;1026;51.460;7.252;2022-11-15T14:07:59;1.53;;;0.83;;
2041;SDS011;1026;51.460;7.252;2022-11-15T14:10:32;1.20;;;0.83;;
2041;SDS011;1026;51.460;7.252;2022-11-15T14:12:59;1.20;;;0.90;;
2041;SDS011;1026;51.460;7.252;2022-11-15T14:15:31;1.10;;;1.00;;
2041;SDS011;1026;51.460;7.252;2022-11-15T14:17:59;1.27;;;0.93;;
2041;SDS011;1026;51.460;7.252;2022-11-15T14:22:51;3.97;;;1.20;;
2041;SDS011;1026;51.460;7.252;2022-11-15T14:25:23;3.00;;;1.50;;
2041;SDS011;1026;51.460;7.252;2022-11-15T14:30:38;1.47;;;1.20;;
2041;SDS011;1026;51.460;7.252;2022-11-15T14:33:17;1.40;;;0.80;;
2041;SDS011;1026;51.460;7.252;2022-11-15T14:35:43;1.37;;;1.10;;
2041;SDS011;1026;51.460;7.252;2022-11-15T14:38:09;1.77;;;1.30;;
2041;SDS011;1026;51.460;7.252;2022-11-15T14:40:34;1.80;;;1.33;;
2041;SDS011;1026;51.460;7.252;2022-11-15T14:43:00;1.53;;;1.13;;
2041;SDS011;1026;51.460;7.252;2022-11-15T14:45:26;5.37;;;1.33;;
2041;SDS011;1026;51.460;7.252;2022-11-15T14:47:52;1.80;;;1.47;;
2041;SDS011;1026;51.460;7.252;2022-11-15T14:50:19;1.87;;;1.60;;
2041;SDS011;1026;51.460;7.252;2022-11-15T14:52:46;2.40;;;2.20;;
2041;SDS011;1026;51.460;7.252;2022-11-15T14:55:16;3.90;;;1.70;;
2041;SDS011;1026;51.460;7.252;2022-11-15T14:58:01;1.50;;;1.40;;
2041;SDS011;1026;51.460;7.252;2022-11-15T15:00:28;3.10;;;2.00;;
2041;SDS011;1026;51.460;7.252;2022-11-15T15:02:56;1.60;;;1.50;;
2041;SDS011;1026;51.460;7.252;2022-11-15T15:05:24;2.07;;;1.57;;
2041;SDS011;1026;51.460;7.252;2022-11-15T15:07:54;4.10;;;2.33;;
2041;SDS011;1026;51.460;7.252;2022-11-15T15:10:20;2.43;;;2.23;;
2041;SDS011;1026;51.460;7.252;2022-11-15T15:12:46;3.33;;;2.13;;
2041;SDS011;1026;51.460;7.252;2022-11-15T15:15:14;2.50;;;2.30;;
2041;SDS011;1026;51.460;7.252;2022-11-15T15:17:42;1.97;;;1.80;;
2041;SDS011;1026;51.460;7.252;2022-11-15T15:20:08;2.77;;;2.20;;
2041;SDS011;1026;51.460;7.252;2022-11-15T15:22:35;3.17;;;2.13;;
2041;SDS011;1026;51.460;7.252;2022-11-15T15:25:01;1.97;;;1.87;;
2041;SDS011;1026;51.460;7.252;2022-11-15T15:27:28;2.67;;;1.63;;
2041;SDS011;1026;51.460;7.252;2022-11-15T15:29:54;1.90;;;1.63;;
2041;SDS011;1026;51.460;7.252;2022-11-15T15:32:20;3.40;;;1.53;;
2041;SDS011;1026;51.460;7.252;2022-11-15T15:34:46;6.40;;;1.70;;
2041;SDS011;1026;51.460;7.252;2022-11-15T15:37:21;3.53;;;1.93;;
2041;SDS011;1026;51.460;7.252;2022-11-15T15:39:49;2.20;;;2.00;;
2041;SDS011;1026;51.460;7.252;2022-11-15T15:42:17;3.97;;;2.67;;
2041;SDS011;1026;51.460;7.252;2022-11-15T15:44:44;2.20;;;2.00;;
2041;SDS011;1026;51.460;7.252;2022-11-15T15:47:11;1.87;;;1.60;;
2041;SDS011;1026;51.460;7.252;2022-11-15T15:49:41;3.00;;;1.93;;
2041;SDS011;1026;51.460;7.252;2022-11-15T15:52:07;5.33;;;2.00;;
2041;SDS011;1026;51.460;7.252;2022-11-15T15:54:33;1.97;;;1.50;;
2041;SDS011;1026;51.460;7.252;2022-11-15T15:56:59;1.50;;;1.40;;
2041;SDS011;1026;51.460;7.252;2022-11-15T15:59:24;3.00;;;2.67;;
2041;SDS011;1026;51.460;7.252;2022-11-15T16:01:50;2.80;;;2.10;;
2041;SDS011;1026;51.460;7.252;2022-11-15T16:04:16;2.10;;;1.93;;
2041;SDS011;1026;51.460;7.252;2022-11-15T16:06:41;2.30;;;1.87;;
2041;SDS011;1026;51.460;7.252;2022-11-15T16:09:17;4.20;;;2.17;;
2041;SDS011;1026;51.460;7.252;2022-11-15T16:12:03;1.93;;;1.50;;
2041;SDS011;1026;51.460;7.252;2022-11-15T16:14:30;3.43;;;1.83;;
2041;SDS011;1026;51.460;7.252;2022-11-15T16:16:56;2.38;;;1.80;;
2041;SDS011;1026;51.460;7.252;2022-11-15T16:19:22;1.87;;;1.73;;
2041;SDS011;1026;51.460;7.252;2022-11-15T16:21:47;2.13;;;1.67;;
2041;SDS011;1026;51.460;7.252;2022-11-15T16:24:13;2.43;;;2.23;;
2041;SDS011;1026;51.460;7.252;2022-11-15T16:26:39;5.13;;;1.90;;
2041;SDS011;1026;51.460;7.252;2022-11-15T16:29:05;2.67;;;1.77;;
2041;SDS011;1026;51.460;7.252;2022-11-15T16:31:31;1.37;;;1.27;;
2041;SDS011;1026;51.460;7.252;2022-11-15T16:33:57;3.47;;;1.77;;
2041;SDS011;1026;51.460;7.252;2022-11-15T16:36:23;2.20;;;2.10;;
2041;SDS011;1026;51.460;7.252;2022-11-15T16:38:50;2.57;;;1.70;;
2041;SDS011;1026;51.460;7.252;2022-11-15T16:41:17;3.13;;;1.90;;
2041;SDS011;1026;51.460;7.252;2022-11-15T16:43:45;4.60;;;1.80;;
2041;SDS011;1026;51.460;7.252;2022-11-15T16:46:13;1.93;;;1.83;;
2041;SDS011;1026;51.460;7.252;2022-11-15T16:48:48;7.20;;;2.30;;
2041;SDS011;1026;51.460;7.252;2022-11-15T16:51:14;5.43;;;1.83;;
2041;SDS011;1026;51.460;7.252;2022-11-15T16:53:40;1.80;;;1.70;;
2041;SDS011;1026;51.460;7.252;2022-11-15T16:58:47;2.97;;;2.30;;
2041;SDS011;1026;51.460;7.252;2022-11-15T17:01:16;2.30;;;1.80;;
2041;SDS011;1026;51.460;7.252;2022-11-15T17:03:43;1.50;;;1.40;;
2041;SDS011;1026;51.460;7.252;2022-11-15T17:06:09;2.07;;;1.40;;
2041;SDS011;1026;51.460;7.252;2022-11-15T17:08:36;2.07;;;1.97;;
2041;SDS011;1026;51.460;7.252;2022-11-15T17:11:10;2.83;;;2.53;;
2041;SDS011;1026;51.460;7.252;2022-11-15T17:13:40;1.37;;;1.27;;